This is the latest recevied weather packets stored in our database for station/object OK1TBM-13. If no packets are shown the sender has not sent any weather packets the latest 10 day(s).
| Time | Temp. | Humidity | Pressure | Rain* | Wind** | Luminosity | Snow |
|---|---|---|---|---|---|---|---|
| 1788444901 | 23.89° C | 52% | 1017.3 hPa | 0 mm | - | 299 W/m² | - |
| 1788444601 | 24.44° C | 49% | 1017.3 hPa | 0 mm | - | 495 W/m² | - |
| 1788444302 | 24.44° C | 53% | 1017.3 hPa | 0 mm | - | 245 W/m² | - |
| 1788444003 | 24.44° C | 53% | 1017.3 hPa | 0 mm | - | 503 W/m² | - |
| 1788443702 | 23.33° C | 54% | 1017.3 hPa | 0 mm | - | 457 W/m² | - |
| 1788443402 | 23.89° C | 53% | 1017.3 hPa | 0 mm | - | 495 W/m² | - |
| 1788443101 | 23.33° C | 55% | 1017.3 hPa | 0 mm | - | 546 W/m² | - |
| 1788442802 | 22.78° C | 56% | 1017.3 hPa | 0 mm | - | 252 W/m² | - |
| 1788442500 | 23.33° C | 57% | 1017.3 hPa | 0 mm | - | 211 W/m² | - |
| 1788442201 | 23.33° C | 55% | 1017.3 hPa | 0 mm | - | 354 W/m² | - |
| 1788441902 | 23.33° C | 55% | 1017.3 hPa | 0 mm | - | 350 W/m² | - |
| 1788441602 | 22.78° C | 55% | 1017.3 hPa | 0 mm | - | 332 W/m² | - |
| 1788441001 | 22.22° C | 57% | 1017.3 hPa | 0 mm | - | 269 W/m² | - |
| 1788440701 | 22.78° C | 56% | 1017.3 hPa | 0 mm | - | 246 W/m² | - |
| 1788440407 | 22.78° C | 55% | 1017.3 hPa | 0 mm | - | 358 W/m² | - |
| 1788440102 | 22.22° C | 56% | 1017.3 hPa | 0 mm | - | 366 W/m² | - |
| 1788439802 | 22.22° C | 56% | 1017.3 hPa | 0 mm | - | 340 W/m² | - |
| 1788439501 | 22.22° C | 57% | 1017.3 hPa | 0 mm | - | 411 W/m² | - |
| 1788438901 | 21.67° C | 59% | 1017.3 hPa | 0 mm | - | 232 W/m² | - |
| 1788438601 | 21.67° C | 59% | 1017.3 hPa | 0 mm | - | 252 W/m² | - |
| 1788438301 | 21.67° C | 58% | 1017.3 hPa | 0 mm | - | 262 W/m² | - |
| 1788438001 | 21.67° C | 59% | 1017.6 hPa | 0 mm | - | 221 W/m² | - |
| 1788437701 | 21.67° C | 59% | 1017.6 hPa | 0 mm | - | 219 W/m² | - |
| 1788437402 | 21.67° C | 58% | 1017.6 hPa | 0 mm | - | 210 W/m² | - |
| 1788437102 | 21.67° C | 57% | 1017.6 hPa | 0 mm | - | 204 W/m² | - |
* Rain latest hour (hover to see other rain measurements)
** Current wind speed in m/s (hover to see current wind gust speed)